• Join FlightAware (Why Join?)
  • Login
  • US Flag 
08:01AM EST


 

Airport Tracker/Info


-or-


 

Live Flight TrackerFlight Track Log ✈ EGF4449 ✈ 12-May-2013 ✈ KJFK - KDCA

Flight Track Log - Related Links

Times and Time Zones

All times are in EDT time to prevent confusion due to time zone crossing. See the EGF4449 flight status page for this flight to view local times or setup timezone preferences in your user account.

Time Position Orientation Groundspeed Altitude Reporting Facility
EDT Latitude Longitude Course Direction KTS MPH feet Rate Location/Type
09:56PM 40.6333 -73.8333 217° Southwest 154 177 1,800  Level New York TRACON
09:57PM 40.5833 -73.8333 180° South 243 280 4,300 2,520 Climbing New York TRACON
09:58PM 40.4075 -73.5574 143° Southeast  Level FlightAware Approximate
09:59PM 40.3332 -73.4831 143° Southeast  Level FlightAware Approximate
10:00PM 40.2589 -73.4089 143° Southeast  Level FlightAware Approximate
10:00PM 40.4675 -73.6819 135° Southeast 278 320 9,900  Level New York Center
10:01PM 40.1847 -73.3346 143° Southeast  Level FlightAware Approximate
10:01PM 40.4089 -73.6111 137° Southeast 297 342 11,200  Level New York Center
10:02PM 40.1050 -73.2950 217° Southwest  Level FlightAware Approximate
10:02PM 40.3297 -73.5208 139° Southeast 330 380 12,400  Level New York Center
10:03PM 40.2444 -73.5119 175° South 326 375 13,700 1,440 Climbing New York Center
10:04PM 40.1425 -73.5081 178° South 337 388 15,300 1,140 Climbing New York Center
10:05PM 40.0625 -73.5400 197° South 337 388 16,000 540 Climbing New York Center
10:06PM 39.9736 -73.5906 204° Southwest 342 394 16,500 960 Climbing New York Center
10:07PM 39.8911 -73.6467 208° Southwest 347 399 18,000 1,500 Climbing New York Center
10:07PM 39.8522 -73.6753 209° Southwest 346 398 18,600 1,500 Climbing Washington Center
10:08PM 39.7761 -73.7367 212° Southwest 341 392 20,100 1,440 Climbing Washington Center
10:09PM 39.7019 -73.7953 211° Southwest 329 379 21,600 1,320 Climbing Washington Center
10:10PM 39.6258 -73.8539 211° Southwest 329 379 22,800 660 Climbing Washington Center
10:11PM 39.5433 -73.9178 211° Southwest 330 380 23,000 60 Climbing Washington Center
10:12PM 39.4608 -73.9789 210° Southwest 341 392 23,000  Level Washington Center
10:13PM 39.3806 -74.0478 214° Southwest 346 398 23,000 -60 Level Washington Center
10:14PM 39.3044 -74.1325 221° Southwest 358 412 22,900 -660 Descending Washington Center
10:15PM 39.2306 -74.2169 222° Southwest 358 412 21,700 -1,200 Descending Washington Center
10:16PM 39.1606 -74.2933 220° Southwest 352 405 20,500 -1,200 Descending Washington Center
10:17PM 39.0925 -74.3694 221° Southwest 344 396 19,300 -1,260 Descending Washington Center
10:18PM 39.0222 -74.4453 220° Southwest 337 388 18,100 -660 Descending Washington Center
10:19PM 38.9522 -74.5211 220° Southwest 332 382 18,000 -60 Descending Washington Center
10:20PM 38.9178 -74.6311 248° West 317 365 18,000 -180 Level Washington Center
10:21PM 38.8997 -74.7461 259° West 329 379 17,700 -660 Descending Washington Center
10:22PM 38.8797 -74.8583 257° West 335 386 16,700 -960 Descending Washington Center
10:23PM 38.8553 -74.9731 255° West 335 386 15,900 -360 Descending Washington Center
10:24PM 38.8372 -75.0853 258° West 335 386 16,000  Climbing Washington Center
10:25PM 38.8147 -75.1947 255° West 330 380 15,900 -600 Descending Washington Center
10:26PM 38.8025 -75.3119 262° West 330 380 14,900 -960 Descending Washington Center
10:27PM 38.7964 -75.4292 266° West 335 386 14,000 -900 Descending Washington Center
10:28PM 38.7903 -75.5464 266° West 330 380 13,200 -900 Descending Washington Center
10:29PM 38.7839 -75.6583 266° West 330 380 12,300 -840 Descending Washington Center
10:30PM 38.7756 -75.7781 265° West 330 380 11,600 -720 Descending Washington Center
10:31PM 38.7669 -75.8897 264° West 330 380 11,000 -360 Descending Washington Center
10:32PM 38.7583 -76.0017 264° West 330 380 11,000  Level Washington Center
10:33PM 38.7619 -76.1214 272° West 330 380 11,000 -240 Level Washington Center
10:34PM 38.7636 -76.2281 271° West 337 388 10,600 -540 Descending Washington Center
10:35PM 38.7756 -76.3400 278° West 332 382 10,000 -480 Descending Washington Center
10:35PM 38.7833 -76.3833 283° West 319 367 10,000  Level Potomac TRACON
10:36PM 38.8000 -76.5000 280° West 298 343 10,000  Level Potomac TRACON
10:37PM 38.8000 -76.5833 270° West 248 285 10,000  Level Potomac TRACON
10:38PM 38.7942 -76.6383 262° West 275 316 10,000  Level Washington Center
10:39PM 38.7956 -76.7289 271° West 259 298 10,000 -1,440 Level Washington Center
10:41PM 38.7333 -76.9000 245° Southwest 264 304 5,300 -1,740 Descending Potomac TRACON
10:42PM 38.6667 -76.9000 180° South 252 290 4,100 -720 Descending Potomac TRACON
10:43PM 38.6667 -76.9833 270° West 222 255 3,900 -240 Descending Potomac TRACON